createdAt,value
2023-01-01T00:01:59.436Z,10.57
2023-01-01T00:04:25.796Z,55.60
2023-01-01T00:06:51.933Z,24.03
2023-01-01T00:09:36.646Z,16.50
2023-01-01T00:12:03.449Z,10.67
2023-01-01T00:14:29.556Z,9.97
2023-01-01T00:16:56.423Z,10.97
2023-01-01T00:19:22.698Z,7.67
2023-01-01T00:21:48.829Z,7.63
2023-01-01T00:24:15.002Z,7.67
2023-01-01T00:26:41.265Z,8.87
2023-01-01T00:29:07.508Z,9.53
2023-01-01T00:31:33.650Z,12.57
2023-01-01T00:34:00.049Z,6.07
2023-01-01T00:36:28.281Z,4.80
2023-01-01T00:38:55.623Z,9.07
2023-01-01T00:41:22.737Z,9.33
2023-01-01T00:43:49.054Z,6.80
2023-01-01T00:46:15.311Z,8.13
2023-01-01T00:48:41.817Z,11.67
2023-01-01T00:51:08.432Z,6.67
2023-01-01T00:53:35.032Z,6.40
2023-01-01T00:56:01.489Z,9.80
2023-01-01T00:58:27.868Z,9.40
2023-01-01T01:00:54.195Z,8.00
2023-01-01T01:03:27.225Z,6.97
2023-01-01T01:06:16.822Z,8.80
2023-01-01T01:08:45.906Z,10.73
2023-01-01T01:11:14.902Z,5.80
2023-01-01T01:13:43.249Z,5.63
2023-01-01T01:16:17.987Z,5.00
2023-01-01T01:18:45.283Z,6.53
2023-01-01T01:21:16.385Z,7.37
2023-01-01T01:23:43.168Z,5.77
2023-01-01T01:26:24.780Z,5.47
2023-01-01T01:28:52.424Z,6.13
2023-01-01T01:31:21.148Z,7.90
2023-01-01T01:33:48.223Z,5.17
2023-01-01T01:36:15.742Z,6.73
2023-01-01T01:38:42.528Z,7.00
2023-01-01T01:41:20.456Z,4.33
2023-01-01T01:43:58.997Z,6.27
2023-01-01T01:46:35.629Z,5.20
2023-01-01T01:49:16.940Z,5.20
2023-01-01T01:51:44.451Z,5.97
2023-01-01T01:54:18.820Z,4.97
2023-01-01T01:56:52.824Z,4.50
2023-01-01T01:59:21.772Z,6.83
2023-01-01T02:01:48.045Z,7.83
2023-01-01T02:04:15.562Z,5.10
2023-01-01T02:06:42.503Z,7.07
2023-01-01T02:09:09.343Z,5.07
2023-01-01T02:11:35.593Z,4.90
2023-01-01T02:14:02.859Z,5.07
2023-01-01T02:16:56.340Z,4.37
2023-01-01T02:20:07.496Z,4.47
2023-01-01T02:23:02.257Z,4.60
2023-01-01T02:25:56.213Z,4.93
2023-01-01T02:29:00.485Z,4.70
2023-01-01T02:31:33.740Z,4.60
2023-01-01T02:34:06.267Z,4.87
2023-01-01T02:36:35.796Z,6.17
2023-01-01T02:39:06.248Z,6.70
2023-01-01T02:41:44.508Z,7.93
2023-01-01T02:44:12.331Z,4.53
2023-01-01T02:46:38.632Z,6.47
2023-01-01T02:49:10.323Z,3.90
2023-01-01T02:52:04.050Z,5.20
2023-01-01T02:55:01.060Z,5.93
2023-01-01T02:57:44.820Z,3.93
2023-01-01T03:00:30.587Z,7.50
2023-01-01T03:03:26.779Z,3.67
2023-01-01T03:06:26.241Z,2.80
2023-01-01T03:09:08.095Z,5.33
2023-01-01T03:12:12.605Z,3.23
2023-01-01T03:15:05.147Z,3.37
2023-01-01T03:18:08.075Z,3.27
2023-01-01T03:20:41.409Z,4.60
2023-01-01T03:23:15.765Z,3.23
2023-01-01T03:25:59.305Z,3.23
2023-01-01T03:28:36.086Z,2.23
2023-01-01T03:31:03.089Z,6.43
2023-01-01T03:33:40.559Z,4.90
2023-01-01T03:36:14.522Z,3.23
2023-01-01T03:38:54.629Z,3.83
2023-01-01T03:41:32.155Z,4.63
2023-01-01T03:44:19.096Z,4.00
2023-01-01T03:46:45.935Z,2.70
2023-01-01T03:49:14.403Z,9.13
2023-01-01T03:52:24.920Z,2.83
2023-01-01T03:55:39.403Z,2.37
2023-01-01T03:58:31.424Z,2.90
2023-01-01T04:01:09.721Z,2.83
2023-01-01T04:03:38.020Z,6.03
2023-01-01T04:06:04.919Z,3.90
2023-01-01T04:08:35.968Z,3.23
2023-01-01T04:11:37.342Z,2.90
2023-01-01T04:14:03.664Z,3.50
2023-01-01T04:16:29.915Z,3.50
2023-01-01T04:18:56.173Z,8.27
2023-01-01T04:21:22.410Z,3.87
2023-01-01T04:23:49.153Z,3.93
2023-01-01T04:26:16.309Z,7.83
2023-01-01T04:28:43.343Z,6.33
2023-01-01T04:31:10.772Z,5.10
2023-01-01T04:33:37.417Z,3.50
2023-01-01T04:36:07.115Z,3.27
2023-01-01T04:38:35.397Z,5.50
2023-01-01T04:41:03.780Z,4.43
2023-01-01T04:43:31.008Z,3.07
2023-01-01T04:46:03.247Z,5.57
2023-01-01T04:48:30.915Z,3.67
2023-01-01T04:51:04.093Z,3.63
2023-01-01T04:53:33.418Z,5.30
2023-01-01T04:56:15.899Z,4.23
2023-01-01T04:58:43.183Z,4.13
2023-01-01T05:01:18.262Z,4.33
2023-01-01T05:03:45.300Z,4.67
2023-01-01T05:06:12.946Z,2.83
2023-01-01T05:08:42.445Z,4.97
2023-01-01T05:11:13.796Z,3.00
2023-01-01T05:13:43.691Z,4.10
2023-01-01T05:16:14.270Z,5.30
2023-01-01T05:18:41.108Z,2.20
2023-01-01T05:21:12.770Z,2.60
2023-01-01T05:23:39.595Z,5.37
2023-01-01T05:26:18.267Z,3.93
2023-01-01T05:28:45.174Z,2.90
2023-01-01T05:31:23.796Z,3.87
2023-01-01T05:33:51.927Z,6.40
2023-01-01T05:36:22.179Z,5.67
2023-01-01T05:38:49.171Z,4.80
2023-01-01T05:41:17.151Z,5.77
2023-01-01T05:43:43.876Z,3.07
2023-01-01T05:46:17.732Z,6.03
2023-01-01T05:48:44.043Z,2.40
2023-01-01T05:51:19.738Z,2.43
2023-01-01T05:53:46.251Z,3.93
2023-01-01T05:56:13.839Z,4.50
2023-01-01T05:58:41.840Z,4.50
2023-01-01T06:01:14.828Z,3.67
2023-01-01T06:03:42.822Z,2.87
2023-01-01T06:06:29.041Z,2.40
2023-01-01T06:09:02.384Z,3.40
2023-01-01T06:11:30.091Z,2.40
2023-01-01T06:13:59.975Z,3.10
2023-01-01T06:16:28.590Z,3.03
2023-01-01T06:18:54.814Z,2.97
2023-01-01T06:21:24.601Z,3.93
2023-01-01T06:23:51.084Z,4.20
2023-01-01T06:26:27.913Z,3.77
2023-01-01T06:28:55.990Z,4.10
2023-01-01T06:31:23.237Z,4.33
2023-01-01T06:33:50.177Z,3.47
2023-01-01T06:36:19.682Z,5.40
2023-01-01T06:38:49.050Z,2.70
2023-01-01T06:41:21.948Z,2.37
2023-01-01T06:43:48.735Z,3.57
2023-01-01T06:46:20.789Z,4.90
2023-01-01T06:48:50.702Z,3.30
2023-01-01T06:51:21.772Z,5.40
2023-01-01T06:53:49.243Z,3.30
2023-01-01T06:56:16.105Z,2.50
2023-01-01T06:58:42.277Z,3.13
2023-01-01T07:01:21.719Z,6.20
2023-01-01T07:04:00.722Z,5.00
2023-01-01T07:06:29.445Z,2.70
2023-01-01T07:08:56.188Z,5.57
2023-01-01T07:11:23.154Z,4.00
2023-01-01T07:13:49.511Z,3.67
2023-01-01T07:16:16.480Z,3.30
2023-01-01T07:18:42.761Z,2.53
2023-01-01T07:21:33.305Z,4.47
2023-01-01T07:24:02.289Z,6.93
2023-01-01T07:26:30.810Z,6.27
2023-01-01T07:29:04.619Z,3.80
2023-01-01T07:31:32.666Z,2.20
2023-01-01T07:33:58.842Z,3.60
2023-01-01T07:36:24.959Z,3.87
2023-01-01T07:38:51.077Z,3.93
2023-01-01T07:41:17.216Z,2.40
2023-01-01T07:43:43.339Z,3.20
2023-01-01T07:46:15.625Z,15.97
2023-01-01T07:48:42.356Z,3.10
2023-01-01T07:51:08.622Z,4.07
2023-01-01T07:53:34.867Z,5.97
2023-01-01T07:56:01.205Z,5.67
2023-01-01T07:58:27.448Z,2.50
2023-01-01T08:00:53.730Z,5.37
2023-01-01T08:03:19.909Z,4.77
2023-01-01T08:05:46.081Z,3.63
2023-01-01T08:08:12.196Z,3.90
2023-01-01T08:10:38.497Z,3.77
2023-01-01T08:13:08.233Z,5.63
2023-01-01T08:15:35.353Z,6.47
2023-01-01T08:18:04.833Z,3.17
2023-01-01T08:20:32.648Z,4.67
2023-01-01T08:23:06.993Z,5.80
2023-01-01T08:25:34.042Z,4.23
2023-01-01T08:28:00.202Z,8.93
2023-01-01T08:30:26.622Z,4.10
2023-01-01T08:32:52.735Z,3.87
2023-01-01T08:35:18.924Z,3.43
2023-01-01T08:37:45.194Z,2.93
2023-01-01T08:40:12.862Z,3.43
2023-01-01T08:42:39.229Z,3.37
2023-01-01T08:45:06.516Z,2.63
2023-01-01T08:47:32.621Z,2.53
2023-01-01T08:49:58.742Z,6.03
2023-01-01T08:52:24.840Z,4.50
2023-01-01T08:54:51.033Z,8.97
2023-01-01T08:57:17.190Z,3.67
2023-01-01T08:59:43.387Z,3.07
2023-01-01T09:02:11.545Z,4.10
2023-01-01T09:04:38.149Z,3.77
2023-01-01T09:07:04.314Z,2.93
2023-01-01T09:09:31.785Z,4.00
2023-01-01T09:12:05.007Z,5.83
2023-01-01T09:14:33.321Z,4.47
2023-01-01T09:16:59.800Z,3.37
2023-01-01T09:19:26.968Z,3.13
2023-01-01T09:21:53.609Z,2.00
2023-01-01T09:24:19.788Z,4.27
2023-01-01T09:26:46.598Z,4.03
2023-01-01T09:29:17.500Z,6.83
2023-01-01T09:31:44.547Z,4.63
2023-01-01T09:34:10.668Z,8.77
2023-01-01T09:36:37.128Z,3.90
2023-01-01T09:39:03.516Z,3.93
2023-01-01T09:41:56.805Z,3.67
2023-01-01T09:44:31.891Z,5.33
2023-01-01T09:47:03.097Z,4.77
2023-01-01T09:49:39.242Z,4.53
2023-01-01T09:52:06.397Z,3.03
2023-01-01T09:54:56.646Z,3.40
2023-01-01T09:57:31.400Z,4.33
2023-01-01T09:59:59.798Z,4.27
2023-01-01T10:02:54.308Z,3.90
2023-01-01T10:05:47.580Z,3.83
2023-01-01T10:08:46.985Z,3.73
2023-01-01T10:11:54.046Z,3.73
2023-01-01T10:14:42.626Z,3.60
2023-01-01T10:17:59.487Z,6.30
2023-01-01T10:20:58.722Z,4.93
2023-01-01T10:23:56.146Z,4.13
2023-01-01T10:26:28.833Z,2.47
2023-01-01T10:29:10.202Z,5.40
2023-01-01T10:31:41.731Z,5.00
2023-01-01T10:34:25.839Z,3.83
2023-01-01T10:36:57.254Z,2.10
2023-01-01T10:39:24.613Z,2.00
2023-01-01T10:41:51.474Z,5.40
2023-01-01T10:44:28.626Z,4.87
2023-01-01T10:46:58.819Z,4.63
2023-01-01T10:49:24.959Z,3.70
2023-01-01T10:51:53.780Z,5.20
2023-01-01T10:54:39.591Z,5.10
2023-01-01T10:57:34.165Z,3.93
2023-01-01T11:00:17.660Z,6.20
2023-01-01T11:02:43.937Z,4.47
2023-01-01T11:05:22.167Z,1.87
2023-01-01T11:07:49.065Z,4.37
2023-01-01T11:10:30.346Z,3.17
2023-01-01T11:13:05.921Z,5.43
2023-01-01T11:15:40.283Z,3.57
2023-01-01T11:18:35.315Z,3.40
2023-01-01T11:21:04.637Z,3.50
2023-01-01T11:23:37.392Z,6.47
2023-01-01T11:26:12.669Z,6.90
2023-01-01T11:28:40.793Z,2.87
2023-01-01T11:31:19.055Z,3.60
2023-01-01T11:33:52.920Z,4.23
2023-01-01T11:36:34.004Z,3.83
2023-01-01T11:39:25.799Z,5.30
2023-01-01T11:41:55.928Z,7.63
2023-01-01T11:44:36.732Z,3.50
2023-01-01T11:47:06.457Z,2.67
2023-01-01T11:49:33.856Z,3.83
2023-01-01T11:52:00.176Z,2.03
2023-01-01T11:54:35.317Z,4.90
2023-01-01T11:57:16.236Z,5.50
2023-01-01T11:59:58.977Z,2.77
2023-01-01T12:02:43.694Z,2.37
2023-01-01T12:05:43.226Z,3.80
2023-01-01T12:08:14.443Z,4.13
2023-01-01T12:10:56.844Z,3.23
2023-01-01T12:13:30.622Z,4.17
2023-01-01T12:16:11.504Z,2.40
2023-01-01T12:19:04.533Z,3.40
2023-01-01T12:21:33.999Z,2.87
2023-01-01T12:24:00.245Z,3.73
2023-01-01T12:27:00.438Z,6.13
2023-01-01T12:29:50.353Z,4.13
2023-01-01T12:33:08.427Z,4.93
2023-01-01T12:36:19.758Z,3.80
2023-01-01T12:39:15.992Z,3.27
2023-01-01T12:42:26.670Z,2.80
2023-01-01T12:45:31.215Z,5.27
2023-01-01T12:48:44.965Z,4.60
2023-01-01T12:51:48.291Z,4.67
2023-01-01T12:54:58.339Z,5.47
2023-01-01T12:57:32.482Z,5.77
2023-01-01T13:00:10.674Z,5.57
2023-01-01T13:02:48.784Z,5.63
2023-01-01T13:05:41.509Z,3.53
2023-01-01T13:08:07.979Z,2.47
2023-01-01T13:10:38.937Z,3.60
2023-01-01T13:13:06.783Z,7.50
2023-01-01T13:15:39.354Z,3.40
2023-01-01T13:18:28.169Z,3.50
2023-01-01T13:21:03.313Z,5.37
2023-01-01T13:23:33.811Z,4.30
2023-01-01T13:26:18.246Z,5.63
2023-01-01T13:29:04.601Z,3.13
2023-01-01T13:31:40.432Z,4.07
2023-01-01T13:34:53.160Z,7.40
2023-01-01T13:37:28.478Z,3.33
2023-01-01T13:40:10.825Z,4.03
2023-01-01T13:42:51.428Z,4.90
2023-01-01T13:46:09.345Z,3.67
2023-01-01T13:49:02.109Z,4.00
2023-01-01T13:52:05.258Z,2.43
2023-01-01T13:54:57.229Z,5.93
2023-01-01T13:57:58.796Z,4.00
2023-01-01T14:00:46.553Z,2.97
2023-01-01T14:03:18.214Z,4.20
2023-01-01T14:06:02.390Z,2.97
2023-01-01T14:08:36.279Z,3.33
2023-01-01T14:11:19.249Z,4.10
2023-01-01T14:13:45.459Z,5.13
2023-01-01T14:16:13.977Z,5.00
2023-01-01T14:18:51.223Z,7.50
2023-01-01T14:21:22.572Z,4.50
2023-01-01T14:24:05.510Z,5.07
2023-01-01T14:26:37.253Z,2.73
2023-01-01T14:29:08.597Z,4.87
2023-01-01T14:31:45.890Z,6.63
2023-01-01T14:34:28.991Z,4.80
2023-01-01T14:36:59.372Z,3.47
2023-01-01T14:39:35.363Z,4.90
2023-01-01T14:42:11.304Z,3.53
2023-01-01T14:44:42.417Z,2.63
2023-01-01T14:47:30.256Z,4.63
2023-01-01T14:50:17.368Z,2.93
2023-01-01T14:52:44.763Z,2.43
2023-01-01T14:55:18.358Z,2.40
2023-01-01T14:57:53.925Z,6.67
2023-01-01T15:00:29.888Z,6.03
2023-01-01T15:03:16.992Z,6.20
2023-01-01T15:05:56.028Z,6.53
2023-01-01T15:08:25.075Z,5.17
2023-01-01T15:10:51.678Z,6.07
2023-01-01T15:13:27.919Z,3.43
2023-01-01T15:15:56.895Z,4.43
2023-01-01T15:18:47.121Z,5.43
2023-01-01T15:21:31.058Z,6.03
2023-01-01T15:24:09.359Z,2.30
2023-01-01T15:26:52.980Z,6.23
2023-01-01T15:29:38.318Z,2.60
2023-01-01T15:32:13.584Z,4.60
2023-01-01T15:35:18.382Z,5.27
2023-01-01T15:37:59.791Z,4.83
2023-01-01T15:40:25.847Z,4.47
2023-01-01T15:43:00.616Z,5.00
2023-01-01T15:45:31.176Z,6.37
2023-01-01T15:48:10.019Z,5.57
2023-01-01T15:50:54.702Z,4.43
2023-01-01T15:53:29.465Z,4.43
2023-01-01T15:56:14.867Z,5.53
2023-01-01T15:58:47.750Z,10.03
2023-01-01T16:01:25.145Z,4.63
2023-01-01T16:04:08.588Z,4.80
2023-01-01T16:06:58.021Z,8.07
2023-01-01T16:09:25.446Z,6.10
2023-01-01T16:11:55.012Z,5.43
2023-01-01T16:14:22.256Z,6.27
2023-01-01T16:17:00.159Z,8.97
2023-01-01T16:19:28.695Z,5.13
2023-01-01T16:21:54.981Z,5.37
2023-01-01T16:24:21.390Z,4.63
2023-01-01T16:26:47.841Z,8.60
2023-01-01T16:29:14.233Z,7.93
2023-01-01T16:31:42.089Z,6.77
2023-01-01T16:34:13.671Z,5.43
2023-01-01T16:36:40.526Z,4.97
2023-01-01T16:39:06.634Z,5.83
2023-01-01T16:41:32.798Z,5.60
2023-01-01T16:43:58.944Z,9.67
2023-01-01T16:46:27.093Z,5.20
2023-01-01T16:48:53.535Z,8.77
2023-01-01T16:51:26.574Z,5.43
2023-01-01T16:53:53.025Z,4.90
2023-01-01T16:56:19.318Z,3.50
2023-01-01T16:58:50.712Z,5.40
2023-01-01T17:01:17.740Z,4.10
2023-01-01T17:03:44.012Z,6.17
2023-01-01T17:06:10.587Z,7.90
2023-01-01T17:08:38.073Z,4.87
2023-01-01T17:11:13.259Z,5.27
2023-01-01T17:13:41.771Z,7.27
2023-01-01T17:16:09.674Z,4.63
2023-01-01T17:21:22.388Z,5.40
2023-01-01T17:23:48.751Z,8.00
2023-01-01T17:26:19.233Z,6.37
2023-01-01T17:28:48.205Z,6.23
2023-01-01T17:31:19.332Z,8.47
2023-01-01T17:33:46.380Z,7.33
2023-01-01T17:36:12.755Z,5.43
2023-01-01T17:38:39.236Z,5.33
2023-01-01T17:41:12.165Z,5.97
2023-01-01T17:43:41.567Z,7.53
2023-01-01T17:46:18.220Z,7.77
2023-01-01T17:48:45.198Z,8.77
2023-01-01T17:51:14.206Z,9.30
2023-01-01T17:53:41.028Z,10.33
2023-01-01T17:56:13.949Z,11.37
2023-01-01T17:58:43.141Z,12.60
2023-01-01T18:01:12.456Z,9.50
2023-01-01T18:03:40.610Z,9.87
2023-01-01T18:06:07.183Z,8.67
2023-01-01T18:08:34.464Z,10.67
2023-01-01T18:11:00.993Z,10.03
2023-01-01T18:13:27.354Z,12.40
2023-01-01T18:15:53.600Z,9.40
2023-01-01T18:18:19.760Z,13.17
2023-01-01T18:20:45.951Z,5.73
2023-01-01T18:23:12.095Z,6.73
2023-01-01T18:25:38.225Z,21.67
2023-01-01T18:28:06.104Z,10.93
2023-01-01T18:30:32.465Z,10.03
2023-01-01T18:32:58.830Z,8.37
2023-01-01T18:35:24.968Z,7.37
2023-01-01T18:37:51.087Z,8.10
2023-01-01T18:40:20.195Z,7.63
2023-01-01T18:43:16.695Z,6.03
2023-01-01T18:45:42.812Z,7.00
2023-01-01T18:48:15.711Z,4.37
2023-01-01T18:50:41.833Z,11.40
2023-01-01T18:53:19.507Z,5.00
2023-01-01T18:56:08.987Z,10.03
2023-01-01T18:58:35.163Z,8.00
2023-01-01T19:01:01.645Z,7.80
2023-01-01T19:03:27.959Z,7.13
2023-01-01T19:05:56.103Z,9.93
2023-01-01T19:08:27.557Z,6.80
2023-01-01T19:11:01.074Z,10.70
2023-01-01T19:13:41.521Z,7.93
2023-01-01T19:16:13.191Z,9.37
2023-01-01T19:18:43.144Z,6.70
2023-01-01T19:21:12.043Z,8.27
2023-01-01T19:23:53.521Z,5.73
2023-01-01T19:26:34.726Z,8.47
2023-01-01T19:29:23.399Z,9.50
2023-01-01T19:31:56.013Z,9.57
2023-01-01T19:34:23.914Z,9.30
2023-01-01T19:36:50.902Z,8.80
2023-01-01T19:39:18.561Z,9.47
2023-01-01T19:41:45.111Z,11.00
2023-01-01T19:44:13.609Z,8.00
2023-01-01T19:46:39.835Z,11.10
2023-01-01T19:49:06.088Z,8.10
2023-01-01T19:51:32.285Z,7.57
2023-01-01T19:53:58.450Z,9.37
2023-01-01T19:56:24.591Z,11.60
2023-01-01T19:58:50.985Z,11.70
2023-01-01T20:01:17.232Z,9.50
2023-01-01T20:03:53.887Z,7.00
2023-01-01T20:06:21.094Z,7.83
2023-01-01T20:08:47.247Z,8.23
2023-01-01T20:11:14.626Z,15.30
2023-01-01T20:13:41.181Z,26.67
2023-01-01T20:16:07.953Z,8.33
2023-01-01T20:18:34.276Z,9.97
2023-01-01T20:21:25.524Z,8.43
2023-01-01T20:23:52.611Z,9.93
2023-01-01T20:26:19.944Z,12.10
2023-01-01T20:29:04.809Z,17.97
2023-01-01T20:31:31.148Z,14.00
2023-01-01T20:33:57.588Z,14.27
2023-01-01T20:36:42.119Z,18.73
2023-01-01T20:39:14.002Z,13.73
2023-01-01T20:41:40.142Z,12.40
2023-01-01T20:44:06.568Z,12.70
2023-01-01T20:46:32.908Z,11.10
2023-01-01T20:48:59.136Z,17.57
2023-01-01T20:51:26.172Z,10.90
2023-01-01T20:53:52.472Z,14.17
2023-01-01T20:56:18.772Z,15.87
2023-01-01T20:58:49.410Z,10.07
2023-01-01T21:01:16.324Z,16.87
2023-01-01T21:03:42.798Z,17.37
2023-01-01T21:06:08.978Z,25.20
2023-01-01T21:08:35.177Z,21.60
2023-01-01T21:11:01.300Z,27.27
2023-01-01T21:13:27.645Z,29.53
2023-01-01T21:15:55.897Z,20.17
2023-01-01T21:18:23.550Z,18.83
2023-01-01T21:20:49.672Z,17.90
2023-01-01T21:23:29.182Z,19.77
2023-01-01T21:25:56.375Z,15.80
2023-01-01T21:28:32.498Z,11.17
2023-01-01T21:31:00.351Z,10.13
2023-01-01T21:33:31.008Z,8.40
2023-01-01T21:36:01.038Z,10.27
2023-01-01T21:38:31.170Z,9.77
2023-01-01T21:40:59.372Z,16.83
2023-01-01T21:43:31.398Z,6.87
2023-01-01T21:46:06.574Z,7.10
2023-01-01T21:48:54.632Z,5.23
2023-01-01T21:51:41.556Z,7.37
2023-01-01T21:54:11.347Z,4.57
2023-01-01T21:56:40.597Z,7.60
2023-01-01T21:59:33.558Z,7.27
2023-01-01T22:02:06.077Z,6.13
2023-01-01T22:04:48.530Z,9.50
2023-01-01T22:07:56.628Z,8.43
2023-01-01T22:10:20.629Z,5.63
2023-01-01T22:12:53.135Z,7.83
2023-01-01T22:15:25.066Z,9.30
2023-01-01T22:18:17.752Z,5.93
2023-01-01T22:20:46.085Z,10.13
2023-01-01T22:23:37.544Z,6.20
2023-01-01T22:26:26.859Z,11.37
2023-01-01T22:29:23.389Z,10.20
2023-01-01T22:32:01.718Z,6.97
2023-01-01T22:34:28.332Z,6.07
2023-01-01T22:36:54.943Z,5.40
2023-01-01T22:39:34.691Z,6.67
2023-01-01T22:42:03.103Z,15.13
2023-01-01T22:44:32.778Z,7.83
2023-01-01T22:47:00.760Z,7.43
2023-01-01T22:49:45.974Z,6.57
2023-01-01T22:52:12.721Z,8.07
2023-01-01T22:54:38.852Z,6.80
2023-01-01T22:57:05.527Z,11.90
2023-01-01T22:59:31.636Z,13.90
2023-01-01T23:01:59.540Z,9.57
2023-01-01T23:04:26.233Z,7.33
2023-01-01T23:06:53.403Z,12.63
2023-01-01T23:09:20.053Z,6.80
2023-01-01T23:11:46.200Z,9.23
2023-01-01T23:14:33.165Z,7.63
2023-01-01T23:17:03.295Z,4.17
2023-01-01T23:19:29.418Z,6.23
2023-01-01T23:21:56.228Z,6.80
2023-01-01T23:24:23.735Z,11.03
2023-01-01T23:26:51.833Z,6.83
2023-01-01T23:29:19.835Z,6.63
2023-01-01T23:31:47.808Z,5.53
2023-01-01T23:34:14.805Z,10.87
2023-01-01T23:36:43.068Z,8.30
2023-01-01T23:39:09.260Z,7.37
2023-01-01T23:41:35.675Z,8.90
2023-01-01T23:44:02.015Z,8.13
2023-01-01T23:46:28.313Z,11.03
2023-01-01T23:48:54.714Z,5.83
2023-01-01T23:51:21.019Z,6.53
2023-01-01T23:53:47.145Z,6.37
2023-01-01T23:56:13.439Z,8.17
2023-01-01T23:58:39.595Z,4.33
